Time;durP1;ratioP1;P1;durP2;ratioP2;P2;SDS_P1;SDS_P2;PMS_P1;PMS_P2;Temp;Humidity;BMP_temperature;BMP_pressure;BME280_temperature;BME280_humidity;BME280_pressure;Samples;Min_cycle;Max_cycle;Signal;HPM_P1;HPM_P2
2024/04/08 00:00:18;;;;;;;;;8.33;8.33;;;;;18.36;100.00;100537.41;2285674;25;45420;-64
2024/04/08 00:01:18;;;;;;;;;7.00;7.00;;;;;18.33;100.00;100536.72;2281793;25;45186;-64
2024/04/08 00:02:19;;;;;;;;;8.00;7.33;;;;;18.36;100.00;100536.53;2277909;25;43883;-64
2024/04/08 00:03:19;;;;;;;;;7.00;7.00;;;;;18.36;100.00;100539.22;2279256;25;45497;-64
2024/04/08 00:04:19;;;;;;;;;5.33;5.33;;;;;18.38;100.00;100538.16;2286023;25;44942;-64
2024/04/08 00:05:20;;;;;;;;;5.67;5.67;;;;;18.39;100.00;100544.41;2278272;25;45119;-64
2024/04/08 00:06:21;;;;;;;;;6.50;5.50;;;;;18.35;100.00;100541.03;2285473;25;45313;-65
2024/04/08 00:07:21;;;;;;;;;7.33;7.00;;;;;18.51;100.00;100533.81;2278292;25;45026;-65
2024/04/08 00:08:21;;;;;;;;;6.33;6.00;;;;;18.37;100.00;100531.06;2279485;25;44967;-64
2024/04/08 00:09:22;;;;;;;;;4.33;4.33;;;;;18.35;100.00;100532.09;2282453;25;44864;-64
2024/04/08 00:10:22;;;;;;;;;6.00;4.67;;;;;18.34;100.00;100538.44;2292232;25;44674;-65
2024/04/08 00:11:22;;;;;;;;;8.67;6.33;;;;;18.34;100.00;100533.94;2288643;25;44143;-64
2024/04/08 00:12:23;;;;;;;;;5.33;5.00;;;;;18.43;100.00;100529.88;2287231;25;45575;-64
2024/04/08 00:13:23;;;;;;;;;4.67;4.67;;;;;18.37;100.00;100538.25;2283204;25;45429;-65
2024/04/08 00:14:23;;;;;;;;;6.67;6.00;;;;;18.39;100.00;100530.97;2277846;25;45072;-65
2024/04/08 00:15:24;;;;;;;;;4.00;4.00;;;;;18.36;100.00;100518.59;2277779;25;44539;-65
2024/04/08 00:16:24;;;;;;;;;4.00;4.00;;;;;18.45;100.00;100519.91;2277938;25;45174;-64
2024/04/08 00:17:24;;;;;;;;;5.00;5.00;;;;;18.36;100.00;100513.22;2282275;25;44829;-65
2024/04/08 00:18:25;;;;;;;;;5.00;4.00;;;;;18.35;100.00;100508.78;2292773;25;44930;-65
2024/04/08 00:19:25;;;;;;;;;4.00;4.00;;;;;18.48;100.00;100493.69;2288881;25;45074;-65
2024/04/08 00:20:25;;;;;;;;;5.00;5.00;;;;;18.38;100.00;100502.38;2291717;25;45454;-64
2024/04/08 00:21:26;;;;;;;;;5.67;4.33;;;;;18.54;100.00;100509.44;2277840;25;45401;-65
2024/04/08 00:22:26;;;;;;;;;4.33;4.00;;;;;18.58;100.00;100512.84;2283839;25;45739;-64
2024/04/08 00:23:27;;;;;;;;;5.00;4.00;;;;;18.59;100.00;100503.84;2286067;25;45153;-64
2024/04/08 00:24:27;;;;;;;;;5.00;5.00;;;;;18.41;100.00;100508.44;2275982;25;45217;-64
2024/04/08 00:25:27;;;;;;;;;2.67;2.67;;;;;18.37;100.00;100497.97;2274641;25;45006;-63
2024/04/08 00:26:28;;;;;;;;;2.67;2.67;;;;;18.37;100.00;100498.81;2277702;25;43690;-62
2024/04/08 00:27:28;;;;;;;;;4.00;4.00;;;;;18.37;100.00;100498.81;2277552;25;45096;-63
2024/04/08 00:28:28;;;;;;;;;5.33;3.00;;;;;18.32;100.00;100502.75;2286619;25;45394;-62
2024/04/08 00:29:28;;;;;;;;;4.00;4.00;;;;;18.32;100.00;100502.75;2293230;25;44367;-63
2024/04/08 00:30:29;;;;;;;;;3.00;3.00;;;;;18.24;100.00;100497.78;2281401;25;45207;-64
2024/04/08 00:31:29;;;;;;;;;3.67;3.67;;;;;18.27;100.00;100499.44;2277624;25;45245;-62
2024/04/08 00:32:30;;;;;;;;;3.00;3.00;;;;;18.47;100.00;100497.34;2270731;25;45165;-63
2024/04/08 00:33:32;;;;;;;;;5.00;3.50;;;;;18.50;100.00;100493.59;2272811;25;45621;-63
2024/04/08 00:34:33;;;;;;;;;5.00;4.00;;;;;18.50;100.00;100483.72;2277926;25;45822;-63
2024/04/08 00:35:33;;;;;;;;;4.00;4.00;;;;;18.54;100.00;100487.09;2262068;25;44768;-62
2024/04/08 00:36:33;;;;;;;;;3.33;3.33;;;;;18.54;100.00;100492.47;2265443;25;45131;-62
2024/04/08 00:37:34;;;;;;;;;3.00;3.00;;;;;18.54;100.00;100496.00;2292958;25;44962;-63
2024/04/08 00:38:34;;;;;;;;;3.67;3.67;;;;;18.56;100.00;100500.47;2281263;25;44379;-64
2024/04/08 00:39:35;;;;;;;;;5.33;4.00;;;;;18.56;100.00;100500.47;2279627;25;45446;-64
2024/04/08 00:40:37;;;;;;;;;3.00;3.00;;;;;18.54;100.00;100504.06;2277829;25;45076;-63
2024/04/08 00:41:37;;;;;;;;;4.50;3.25;;;;;18.52;100.00;100507.81;2273971;25;45359;-63
2024/04/08 00:42:38;;;;;;;;;2.00;1.00;;;;;18.49;100.00;100506.19;2277240;25;45331;-63
2024/04/08 00:43:38;;;;;;;;;6.33;5.00;;;;;18.49;100.00;100511.56;2257778;26;45329;-63
2024/04/08 00:44:38;;;;;;;;;4.67;4.33;;;;;18.49;100.00;100500.81;2261288;26;45073;-64
2024/04/08 00:45:41;;;;;;;;;5.00;5.00;;;;;18.48;100.00;100495.53;2277016;25;44949;-65
2024/04/08 00:46:42;;;;;;;;;3.25;2.25;;;;;18.50;100.00;100501.66;2268821;25;45274;-65
2024/04/08 00:47:42;;;;;;;;;3.00;3.00;;;;;18.52;100.00;100489.00;2280074;25;44425;-65
2024/04/08 00:48:45;;;;;;;;;4.00;4.00;;;;;18.53;100.00;100488.91;2270022;25;45115;-65
2024/04/08 00:49:46;;;;;;;;;5.00;4.00;;;;;18.51;100.00;100481.91;2272064;25;44946;-63
2024/04/08 00:50:49;;;;;;;;;4.25;4.25;;;;;18.44;100.00;100470.66;2277602;25;45495;-64
2024/04/08 00:51:50;;;;;;;;;6.00;6.00;;;;;18.39;100.00;100458.44;2266298;25;45125;-63
2024/04/08 00:52:52;;;;;;;;;3.00;3.00;;;;;18.38;100.00;100454.88;2272851;25;45857;-63
2024/04/08 00:53:53;;;;;;;;;5.00;5.00;;;;;18.37;100.00;100447.78;2290904;25;44983;-63
2024/04/08 00:54:53;;;;;;;;;3.00;3.00;;;;;18.43;100.00;100450.13;2279453;25;45461;-64
2024/04/08 00:55:54;;;;;;;;;4.00;4.00;;;;;18.40;100.00;100449.41;2285426;25;45303;-63
2024/04/08 00:57:00;;;;;;;;;4.00;4.00;;;;;18.52;100.00;100446.00;2278796;25;45319;-65
2024/04/08 00:58:01;;;;;;;;;4.00;4.00;;;;;18.56;100.00;100438.66;2282507;25;45562;-65
2024/04/08 00:59:03;;;;;;;;;6.00;5.00;;;;;18.58;100.00;100432.22;2277201;25;45951;-65
2024/04/08 01:00:04;;;;;;;;;4.75;4.75;;;;;18.61;100.00;100439.25;2278060;25;44312;-65
2024/04/08 01:01:05;;;;;;;;;4.50;4.00;;;;;18.62;100.00;100435.59;2242957;26;45734;-65
2024/04/08 01:02:06;;;;;;;;;4.00;4.00;;;;;18.61;100.00;100442.78;2236393;25;45191;-65
2024/04/08 01:03:06;;;;;;;;;5.00;4.00;;;;;18.59;100.00;100435.78;2279179;25;45518;-64
2024/04/08 01:04:07;;;;;;;;;4.00;4.00;;;;;18.59;100.00;100449.22;2282540;25;45339;-65
2024/04/08 01:05:13;;;;;;;;;2.25;2.25;;;;;18.58;100.00;100444.81;2286666;25;45453;-65
2024/04/08 01:06:14;;;;;;;;;5.50;5.00;;;;;18.56;100.00;100444.91;2273363;25;45491;-65
2024/04/08 01:07:14;;;;;;;;;4.00;4.00;;;;;18.54;100.00;100444.97;2269103;25;44897;-65
2024/04/08 01:08:14;;;;;;;;;5.00;5.00;;;;;18.51;100.00;100446.97;2289563;25;44818;-65
2024/04/08 01:09:15;;;;;;;;;4.33;4.33;;;;;18.48;100.00;100445.34;2280282;25;44734;-65
2024/04/08 01:10:17;;;;;;;;;5.00;5.00;;;;;18.47;100.00;100448.97;2277798;25;45969;-64
2024/04/08 01:11:17;;;;;;;;;4.00;4.00;;;;;18.43;100.00;100447.44;2277358;25;45212;-64
2024/04/08 01:12:18;;;;;;;;;5.33;5.00;;;;;18.44;100.00;100442.94;2284084;25;45066;-65
2024/04/08 01:13:18;;;;;;;;;6.33;6.33;;;;;18.43;100.00;100447.44;2278938;25;45125;-65
2024/04/08 01:14:18;;;;;;;;;9.00;9.00;;;;;18.42;100.00;100455.56;2277682;25;45039;-64
2024/04/08 01:15:19;;;;;;;;;10.00;10.00;;;;;18.41;100.00;100448.47;2277390;25;45178;-65
2024/04/08 01:16:19;;;;;;;;;7.67;7.67;;;;;18.40;100.00;100449.41;2246349;26;44869;-65
2024/04/08 01:17:19;;;;;;;;;7.33;7.00;;;;;18.39;100.00;100456.59;2239719;26;45558;-65
2024/04/08 01:18:20;;;;;;;;;8.00;7.00;;;;;18.39;100.00;100447.69;2292579;25;45648;-65
2024/04/08 01:19:23;;;;;;;;;12.00;11.67;;;;;18.37;100.00;100452.28;2278369;25;45626;-64
2024/04/08 01:20:23;;;;;;;;;11.25;11.25;;;;;18.36;100.00;100459.47;2280550;25;45222;-64
2024/04/08 01:21:24;;;;;;;;;11.00;9.33;;;;;18.36;100.00;100459.47;2284923;25;45448;-67
2024/04/08 01:22:26;;;;;;;;;9.00;9.00;;;;;18.33;100.00;100467.72;2276738;25;45176;-65
2024/04/08 01:23:28;;;;;;;;;8.00;5.75;;;;;18.33;100.00;100475.78;2261264;25;45839;-64
2024/04/08 01:24:30;;;;;;;;;7.50;6.00;;;;;18.31;100.00;100477.69;2263258;25;44953;-64
2024/04/08 01:25:31;;;;;;;;;5.00;5.00;;;;;18.28;100.00;100485.03;2278067;25;45355;-65
2024/04/08 01:26:31;;;;;;;;;6.33;6.00;;;;;18.25;100.00;100488.78;2277978;25;45272;-65
2024/04/08 01:27:31;;;;;;;;;6.00;5.33;;;;;18.26;100.00;100492.34;2277450;25;45096;-65
2024/04/08 01:28:32;;;;;;;;;9.00;6.00;;;;;18.24;100.00;100497.78;2277281;25;43615;-65
2024/04/08 01:29:35;;;;;;;;;6.00;6.00;;;;;18.21;100.00;100500.66;2281898;25;45099;-66
2024/04/08 01:30:36;;;;;;;;;7.25;7.25;;;;;18.18;100.00;100493.66;2290219;25;45179;-64
2024/04/08 01:31:36;;;;;;;;;8.67;7.00;;;;;18.18;100.00;100503.53;2280805;25;44580;-65
2024/04/08 01:32:36;;;;;;;;;7.67;7.67;;;;;18.17;100.00;100504.50;2277281;25;44987;-65
2024/04/08 01:33:40;;;;;;;;;10.00;9.00;;;;;18.20;100.00;100496.25;2277254;25;45250;-65
2024/04/08 01:34:40;;;;;;;;;8.75;7.75;;;;;18.21;100.00;100504.22;2277201;25;45128;-65
2024/04/08 01:35:41;;;;;;;;;8.00;8.00;;;;;18.22;100.00;100503.25;2262260;25;45092;-65
2024/04/08 01:36:41;;;;;;;;;5.67;5.00;;;;;18.22;100.00;100503.25;2268618;25;44575;-67
2024/04/08 01:37:41;;;;;;;;;10.33;10.33;;;;;18.23;100.00;100502.31;2278236;25;45231;-63
2024/04/08 01:38:41;;;;;;;;;11.00;10.00;;;;;18.24;100.00;100504.03;2277616;25;46008;-65
2024/04/08 01:39:42;;;;;;;;;12.33;10.33;;;;;18.17;100.00;100505.34;2278622;25;45600;-65
2024/04/08 01:40:42;;;;;;;;;11.67;11.00;;;;;18.11;100.00;100512.88;2277209;25;45373;-64
2024/04/08 01:41:42;;;;;;;;;9.00;9.00;;;;;18.13;100.00;100513.66;2277183;25;45078;-66
2024/04/08 01:42:43;;;;;;;;;11.33;10.67;;;;;18.13;100.00;100525.25;2277694;25;45227;-65
2024/04/08 01:43:43;;;;;;;;;10.00;10.00;;;;;18.13;100.00;100519.88;2269928;25;45165;-64
2024/04/08 01:44:45;;;;;;;;;14.00;12.67;;;;;18.11;100.00;100520.94;2272760;25;45887;-64
2024/04/08 01:45:45;;;;;;;;;10.25;8.75;;;;;18.23;100.00;100521.09;2277642;25;45070;-65
2024/04/08 01:46:46;;;;;;;;;9.00;9.00;;;;;18.22;100.00;100523.88;2276377;25;45595;-66
2024/04/08 01:47:46;;;;;;;;;9.00;9.00;;;;;18.23;100.00;100525.63;2252618;26;45792;-66
2024/04/08 01:48:46;;;;;;;;;10.00;10.00;;;;;18.23;100.00;100530.97;2251917;26;44563;-65
2024/04/08 01:49:47;;;;;;;;;7.67;7.67;;;;;18.20;100.00;100526.66;2289522;25;44627;-64
2024/04/08 01:50:47;;;;;;;;;13.33;11.00;;;;;18.18;100.00;100525.88;2292446;25;45626;-65
2024/04/08 01:51:48;;;;;;;;;8.33;7.67;;;;;18.17;100.00;100526.84;2276895;25;45025;-66
2024/04/08 01:52:48;;;;;;;;;12.00;11.33;;;;;18.17;100.00;100520.59;2281078;25;45591;-66
2024/04/08 01:53:48;;;;;;;;;8.33;8.33;;;;;18.20;100.00;100523.97;2277192;25;45425;-65
2024/04/08 01:54:49;;;;;;;;;9.67;9.67;;;;;18.21;100.00;100524.84;2277034;25;45365;-66
2024/04/08 01:55:49;;;;;;;;;10.00;10.00;;;;;18.10;100.00;100520.06;2261234;25;44965;-65
2024/04/08 01:56:49;;;;;;;;;10.67;10.67;;;;;18.11;100.00;100518.25;2253848;26;45042;-64
2024/04/08 01:57:51;;;;;;;;;13.00;11.67;;;;;18.11;100.00;100518.25;2276175;25;45438;-65
2024/04/08 01:58:51;;;;;;;;;8.75;8.00;;;;;18.12;100.00;100510.09;2277567;25;45346;-66
2024/04/08 01:59:52;;;;;;;;;11.33;9.00;;;;;18.10;100.00;100503.94;2291088;25;45280;-66
2024/04/08 02:00:52;;;;;;;;;11.67;9.33;;;;;18.12;100.00;100503.84;2287697;25;45034;-66
2024/04/08 02:01:52;;;;;;;;;11.33;11.33;;;;;18.10;100.00;100495.88;2277031;25;45339;-65
2024/04/08 02:02:53;;;;;;;;;8.33;8.00;;;;;18.07;100.00;100485.31;2277115;25;45083;-65
2024/04/08 02:03:53;;;;;;;;;9.33;8.00;;;;;18.12;100.00;100485.06;2286923;25;45576;-66
2024/04/08 02:04:54;;;;;;;;;7.67;7.67;;;;;18.15;100.00;100477.69;2275933;25;46258;-65
2024/04/08 02:05:54;;;;;;;;;11.33;9.33;;;;;18.19;100.00;100471.22;2281749;25;44931;-65
2024/04/08 02:06:54;;;;;;;;;10.00;8.67;;;;;18.12;100.00;100472.50;2277834;25;45373;-65
2024/04/08 02:07:55;;;;;;;;;4.33;4.33;;;;;18.22;100.00;100464.78;2278505;25;45138;-65
2024/04/08 02:08:55;;;;;;;;;8.00;7.00;;;;;18.10;100.00;100466.34;2281140;25;45403;-66
2024/04/08 02:09:57;;;;;;;;;8.67;6.67;;;;;18.08;100.00;100456.66;2279247;25;45657;-66
2024/04/08 02:10:57;;;;;;;;;7.75;7.75;;;;;18.07;100.00;100460.28;2277619;25;45177;-66
2024/04/08 02:11:58;;;;;;;;;6.00;5.00;;;;;18.05;100.00;100462.22;2283509;25;45083;-65
2024/04/08 02:12:58;;;;;;;;;7.00;4.33;;;;;18.02;100.00;100459.66;2280625;25;45584;-66
2024/04/08 02:13:59;;;;;;;;;8.33;7.00;;;;;17.97;100.00;100451.88;2276917;25;44943;-65
2024/04/08 02:14:59;;;;;;;;;7.33;7.00;;;;;17.96;100.00;100449.28;2279817;25;45091;-66
2024/04/08 02:15:59;;;;;;;;;8.00;7.33;;;;;18.00;100.00;100453.53;2281708;25;45063;-65
2024/04/08 02:17:01;;;;;;;;;7.67;7.67;;;;;18.22;100.00;100446.84;2278621;25;44974;-65
2024/04/08 02:18:01;;;;;;;;;9.25;7.75;;;;;18.14;100.00;100449.09;2283321;25;45085;-65
2024/04/08 02:19:02;;;;;;;;;7.00;7.00;;;;;18.04;100.00;100441.66;2280343;25;45475;-64
2024/04/08 02:20:03;;;;;;;;;9.67;9.67;;;;;18.13;100.00;100433.06;2281655;25;45088;-65
2024/04/08 02:21:04;;;;;;;;;10.50;10.00;;;;;18.28;100.00;100428.63;2279763;25;46000;-64
2024/04/08 02:22:04;;;;;;;;;8.00;7.00;;;;;18.32;100.00;100423.00;2256546;26;45062;-65
2024/04/08 02:23:04;;;;;;;;;10.00;8.33;;;;;18.31;100.00;100413.22;2247950;26;44973;-65
2024/04/08 02:24:05;;;;;;;;;7.67;7.00;;;;;18.26;100.00;100404.56;2283095;25;45365;-65
2024/04/08 02:25:07;;;;;;;;;8.67;8.67;;;;;18.21;100.00;100406.66;2280016;25;44285;-64
2024/04/08 02:26:07;;;;;;;;;6.75;6.25;;;;;18.20;100.00;100403.09;2284802;25;45398;-63
2024/04/08 02:27:08;;;;;;;;;10.00;8.67;;;;;18.30;100.00;100397.19;2280417;25;43619;-64
2024/04/08 02:28:09;;;;;;;;;5.33;5.33;;;;;18.18;100.00;100401.47;2266440;25;43599;-63
2024/04/08 02:29:09;;;;;;;;;7.33;7.33;;;;;18.15;100.00;100401.63;2269888;25;45455;-63
2024/04/08 02:30:10;;;;;;;;;10.33;8.33;;;;;18.15;100.00;100398.94;2286397;25;45084;-63
2024/04/08 02:31:11;;;;;;;;;10.67;10.67;;;;;18.15;100.00;100401.63;2278035;25;45704;-64
2024/04/08 02:32:12;;;;;;;;;11.75;10.50;;;;;18.16;100.00;100403.34;2279227;25;45242;-64
2024/04/08 02:33:12;;;;;;;;;14.00;14.00;;;;;18.17;100.00;100405.13;2278261;25;45043;-63
2024/04/08 02:34:13;;;;;;;;;11.00;10.67;;;;;18.16;100.00;100404.22;2263400;25;45590;-64
2024/04/08 02:35:15;;;;;;;;;8.25;7.75;;;;;18.14;100.00;100408.81;2263927;25;45224;-63
2024/04/08 02:36:16;;;;;;;;;9.25;8.25;;;;;18.02;100.00;100398.78;2281277;25;46028;-63
2024/04/08 02:37:16;;;;;;;;;9.67;9.00;;;;;18.09;100.00;100404.69;2285989;25;45496;-64
2024/04/08 02:38:16;;;;;;;;;9.00;8.00;;;;;18.05;100.00;100398.63;2278374;25;45092;-64
2024/04/08 02:39:17;;;;;;;;;7.00;7.00;;;;;18.04;100.00;100391.53;2278970;25;45326;-63
2024/04/08 02:40:17;;;;;;;;;6.33;6.33;;;;;18.04;100.00;100390.63;2278349;25;45168;-66
2024/04/08 02:41:17;;;;;;;;;9.33;9.00;;;;;18.03;100.00;100386.22;2278073;25;44912;-65
2024/04/08 02:42:18;;;;;;;;;8.67;6.00;;;;;18.05;100.00;100392.41;2283630;25;43956;-65
2024/04/08 02:43:18;;;;;;;;;9.00;7.00;;;;;18.04;100.00;100402.28;2257608;26;45412;-65
2024/04/08 02:44:18;;;;;;;;;8.67;7.33;;;;;18.03;100.00;100396.97;2248243;26;45139;-65
2024/04/08 02:45:19;;;;;;;;;10.00;8.33;;;;;18.03;100.00;100394.28;2278943;25;45645;-64
2024/04/08 02:46:19;;;;;;;;;7.33;7.33;;;;;18.03;100.00;100400.50;2277911;25;45198;-63
2024/04/08 02:47:19;;;;;;;;;8.67;8.33;;;;;18.02;100.00;100398.78;2278226;25;45040;-64
2024/04/08 02:48:20;;;;;;;;;9.00;7.00;;;;;18.02;100.00;100398.78;2282826;25;45901;-64
2024/04/08 02:49:21;;;;;;;;;10.33;9.00;;;;;18.01;100.00;100393.50;2273873;25;43440;-64
2024/04/08 02:50:21;;;;;;;;;11.67;11.00;;;;;18.02;100.00;100389.84;2267582;25;45130;-64
2024/04/08 02:51:21;;;;;;;;;8.00;8.00;;;;;18.01;100.00;100396.19;2266268;25;44720;-63
2024/04/08 02:52:22;;;;;;;;;8.67;8.67;;;;;18.01;100.00;100404.25;2262415;25;45379;-64
2024/04/08 02:53:22;;;;;;;;;9.00;9.00;;;;;17.98;100.00;100399.91;2278152;25;45566;-64
2024/04/08 02:54:23;;;;;;;;;11.67;9.00;;;;;17.97;100.00;100408.94;2280590;25;43773;-64
2024/04/08 02:55:23;;;;;;;;;6.67;6.00;;;;;17.95;100.00;100410.84;2258260;26;46423;-64
2024/04/08 02:56:24;;;;;;;;;11.67;11.67;;;;;17.94;100.00;100418.03;2254266;26;45474;-64
2024/04/08 02:57:24;;;;;;;;;13.67;10.67;;;;;17.92;100.00;100419.94;2285341;25;44975;-63
2024/04/08 02:58:24;;;;;;;;;10.00;8.00;;;;;17.92;100.00;100422.63;2278258;25;45085;-64
2024/04/08 02:59:25;;;;;;;;;9.67;9.67;;;;;17.93;100.00;100420.81;2278714;25;45450;-64
2024/04/08 03:00:26;;;;;;;;;11.00;11.00;;;;;17.92;100.00;100421.75;2288302;25;45180;-64
2024/04/08 03:01:26;;;;;;;;;12.33;10.67;;;;;17.91;100.00;100423.59;2282906;25;45500;-64
2024/04/08 03:02:26;;;;;;;;;10.33;10.33;;;;;17.88;100.00;100423.72;2273847;25;45258;-63
2024/04/08 03:03:26;;;;;;;;;12.00;10.67;;;;;17.86;100.00;100419.41;2275512;25;45139;-63
2024/04/08 03:04:27;;;;;;;;;13.33;13.33;;;;;17.84;100.00;100414.13;2277936;25;45805;-63
2024/04/08 03:05:27;;;;;;;;;14.67;14.67;;;;;17.86;100.00;100419.41;2276923;25;45377;-63
2024/04/08 03:06:29;;;;;;;;;12.00;12.00;;;;;17.92;100.00;100408.34;2277681;25;45292;-65
2024/04/08 03:07:29;;;;;;;;;14.00;13.50;;;;;17.87;100.00;100405.91;2278334;25;44481;-63
2024/04/08 03:08:30;;;;;;;;;8.00;7.67;;;;;17.91;100.00;100398.53;2291822;25;45095;-64
2024/04/08 03:09:30;;;;;;;;;10.00;10.00;;;;;17.88;100.00;100402.25;2287180;25;45155;-65
2024/04/08 03:10:31;;;;;;;;;13.33;9.33;;;;;17.82;100.00;100405.31;2288183;25;45086;-65
2024/04/08 03:11:31;;;;;;;;;8.50;7.75;;;;;17.94;100.00;100411.78;2293492;25;45179;-64
2024/04/08 03:12:31;;;;;;;;;13.00;11.00;;;;;17.96;100.00;100400.97;2287194;25;45383;-64
2024/04/08 03:13:33;;;;;;;;;6.33;6.33;;;;;17.97;100.00;100398.19;2281491;25;45474;-65
2024/04/08 03:14:33;;;;;;;;;12.25;11.75;;;;;17.98;100.00;100401.75;2286338;25;45468;-64
2024/04/08 03:15:34;;;;;;;;;12.33;11.67;;;;;17.99;100.00;100398.09;2293221;25;45248;-64
2024/04/08 03:16:34;;;;;;;;;14.00;14.00;;;;;17.96;100.00;100399.16;2278253;25;45362;-64
2024/04/08 03:17:35;;;;;;;;;11.33;11.33;;;;;17.94;100.00;100403.75;2277726;25;45479;-64
2024/04/08 03:18:36;;;;;;;;;14.00;12.50;;;;;17.91;100.00;100412.84;2278150;25;45973;-64
2024/04/08 03:19:36;;;;;;;;;2.00;1.33;;;;;17.89;100.00;100405.81;2278229;25;44144;-64
2024/04/08 03:20:36;;;;;;;;;9.33;9.33;;;;;17.89;100.00;100413.84;2278020;25;44597;-64
2024/04/08 03:21:37;;;;;;;;;11.00;11.00;;;;;17.86;100.00;100409.53;2278247;25;45383;-64
2024/04/08 03:22:37;;;;;;;;;9.00;9.00;;;;;17.86;100.00;100406.00;2275428;25;44187;-64
2024/04/08 03:23:37;;;;;;;;;9.00;9.00;;;;;17.59;100.00;100408.38;2277569;25;44988;-65
2024/04/08 03:24:38;;;;;;;;;10.33;9.33;;;;;17.71;100.00;100405.03;2278999;25;45071;-64
2024/04/08 03:25:40;;;;;;;;;10.00;10.00;;;;;17.65;100.00;100402.66;2282440;25;45552;-64
2024/04/08 03:26:40;;;;;;;;;8.25;7.75;;;;;17.75;100.00;100403.03;2278348;25;45736;-63
2024/04/08 03:27:42;;;;;;;;;10.00;9.33;;;;;17.69;100.00;100395.34;2281351;25;45082;-64
2024/04/08 03:28:42;;;;;;;;;6.50;6.00;;;;;17.72;100.00;100404.09;2269302;25;45359;-64
2024/04/08 03:29:43;;;;;;;;;7.67;7.67;;;;;17.70;100.00;100403.31;2277250;25;45228;-64
2024/04/08 03:30:43;;;;;;;;;7.33;7.00;;;;;17.63;100.00;100392.00;2280125;25;45540;-65
2024/04/08 03:31:44;;;;;;;;;6.67;6.67;;;;;17.65;100.00;100391.91;2266139;25;45537;-64
2024/04/08 03:32:44;;;;;;;;;7.33;7.00;;;;;17.65;100.00;100397.28;2277158;25;45405;-64
2024/04/08 03:33:44;;;;;;;;;5.00;5.00;;;;;17.64;100.00;100393.72;2282905;25;44240;-64
2024/04/08 03:34:45;;;;;;;;;5.67;5.67;;;;;17.64;100.00;100396.41;2278247;25;45497;-63
2024/04/08 03:35:45;;;;;;;;;3.00;3.00;;;;;17.65;100.00;100398.16;2278122;25;45682;-63
2024/04/08 03:36:45;;;;;;;;;5.33;5.33;;;;;17.64;100.00;100398.22;2278016;25;45231;-64
2024/04/08 03:37:46;;;;;;;;;7.00;6.67;;;;;17.67;100.00;100390.03;2278024;25;45198;-64
2024/04/08 03:38:46;;;;;;;;;7.33;7.33;;;;;17.68;100.00;100399.81;2278269;25;45617;-63
2024/04/08 03:39:49;;;;;;;;;7.33;7.33;;;;;17.62;100.00;100384.91;2282327;25;45567;-64
2024/04/08 03:41:16;;;;;;;;;5.75;5.75;;;;;17.66;100.00;100382.94;2279193;25;45506;-63
2024/04/08 03:42:17;;;;;;;;;6.25;6.00;;;;;17.62;100.00;100384.91;2242651;26;45324;-65
2024/04/08 03:43:17;;;;;;;;;5.67;5.67;;;;;17.59;100.00;100381.53;2231386;26;45654;-64
2024/04/08 03:44:17;;;;;;;;;6.00;6.00;;;;;17.63;100.00;100375.03;2231861;26;45535;-64
2024/04/08 03:45:18;;;;;;;;;5.00;5.00;;;;;17.64;100.00;100368.72;2246430;26;45240;-63
2024/04/08 03:46:19;;;;;;;;;4.33;4.33;;;;;17.64;100.00;100366.91;2246417;26;45646;-64
2024/04/08 03:47:19;;;;;;;;;8.33;6.67;;;;;17.77;100.00;100355.50;2241696;26;45197;-64
2024/04/08 03:48:20;;;;;;;;;5.00;5.00;;;;;17.80;100.00;100355.34;2245679;26;45070;-63
2024/04/08 03:49:20;;;;;;;;;6.33;5.33;;;;;17.81;100.00;100349.03;2216696;26;44973;-64
2024/04/08 03:50:20;;;;;;;;;8.67;5.67;;;;;17.83;100.00;100333.69;2217171;26;44654;-63
2024/04/08 03:51:21;;;;;;;;;6.33;6.33;;;;;17.85;100.00;100329.97;2246429;26;45212;-63
2024/04/08 03:52:21;;;;;;;;;5.67;5.67;;;;;17.89;100.00;100318.09;2246744;26;43873;-64
2024/04/08 03:53:22;;;;;;;;;6.33;6.33;;;;;17.90;100.00;100306.38;2244920;26;44936;-65
2024/04/08 03:54:22;;;;;;;;;4.00;4.00;;;;;17.93;100.00;100306.22;2245078;26;44695;-64
2024/04/08 03:55:24;;;;;;;;;7.67;7.67;;;;;17.97;100.00;100308.72;2247186;26;45182;-65
2024/04/08 03:56:24;;;;;;;;;4.25;4.25;;;;;17.98;100.00;100311.31;2244540;26;45591;-66
2024/04/08 03:57:25;;;;;;;;;6.00;4.67;;;;;17.92;100.00;100317.94;2244363;26;45094;-64
2024/04/08 03:58:25;;;;;;;;;5.00;5.00;;;;;17.89;100.00;100322.59;2238340;26;45517;-64
2024/04/08 03:59:25;;;;;;;;;4.00;4.00;;;;;17.89;100.00;100326.13;2241048;26;44280;-64
2024/04/08 04:00:26;;;;;;;;;5.00;4.00;;;;;17.85;100.00;100327.28;2246168;26;45164;-65
2024/04/08 04:01:26;;;;;;;;;6.00;4.67;;;;;17.87;100.00;100328.03;2239951;26;45704;-64
2024/04/08 04:02:26;;;;;;;;;4.67;4.67;;;;;17.85;100.00;100329.97;2243562;26;45457;-63
2024/04/08 04:03:27;;;;;;;;;4.33;4.33;;;;;17.88;100.00;100332.47;2242691;26;45486;-64
2024/04/08 04:04:27;;;;;;;;;4.33;4.00;;;;;17.81;100.00;100333.78;2214633;26;45139;-65
2024/04/08 04:05:27;;;;;;;;;5.00;5.00;;;;;17.92;100.00;100322.44;2217683;26;44992;-64
2024/04/08 04:06:28;;;;;;;;;5.67;5.00;;;;;17.94;100.00;100325.88;2244524;26;45325;-63
2024/04/08 04:07:28;;;;;;;;;3.67;2.33;;;;;17.90;100.00;100325.19;2234850;26;45455;-65
2024/04/08 04:08:28;;;;;;;;;5.00;5.00;;;;;17.84;100.00;100330.06;2242069;26;44719;-63
2024/04/08 04:09:29;;;;;;;;;4.00;4.00;;;;;17.92;100.00;100325.97;2246637;26;45009;-64
2024/04/08 04:10:29;;;;;;;;;3.33;3.00;;;;;17.85;100.00;100327.28;2208523;26;45320;-64
2024/04/08 04:11:30;;;;;;;;;6.00;6.00;;;;;18.02;100.00;100331.66;2212189;26;45067;-63
2024/04/08 04:12:36;;;;;;;;;5.67;5.67;;;;;18.05;100.00;100325.25;2246555;26;45209;-64
2024/04/08 04:13:37;;;;;;;;;5.00;4.00;;;;;18.05;100.00;100336.88;2231803;26;44339;-65
2024/04/08 04:14:37;;;;;;;;;6.33;6.00;;;;;18.07;100.00;100334.09;2231853;26;44321;-64
2024/04/08 04:15:37;;;;;;;;;6.00;6.00;;;;;18.08;100.00;100343.88;2246576;26;45124;-65
2024/04/08 04:16:38;;;;;;;;;5.33;4.33;;;;;18.09;100.00;100342.91;2246373;26;45094;-65
2024/04/08 04:17:39;;;;;;;;;6.67;5.67;;;;;18.10;100.00;100341.97;2246185;26;45136;-64
2024/04/08 04:18:39;;;;;;;;;6.33;6.33;;;;;18.00;100.00;100348.81;2246607;26;45581;-64
2024/04/08 04:19:39;;;;;;;;;4.00;4.00;;;;;18.07;100.00;100339.47;2264476;25;44800;-64
2024/04/08 04:20:42;;;;;;;;;7.00;6.67;;;;;18.00;100.00;100343.44;2279598;25;45296;-65
2024/04/08 04:21:42;;;;;;;;;5.50;5.50;;;;;17.98;100.00;100338.16;2285596;25;45430;-64
2024/04/08 04:22:44;;;;;;;;;5.67;5.67;;;;;18.01;100.00;100350.53;2277659;25;45606;-65
2024/04/08 04:23:45;;;;;;;;;6.00;5.25;;;;;18.02;100.00;100345.06;2292003;25;45302;-65
2024/04/08 04:24:45;;;;;;;;;6.33;6.33;;;;;18.00;100.00;100359.56;2278427;25;45220;-62
2024/04/08 04:25:59;;;;;;;;;7.33;6.67;;;;;17.99;100.00;100357.81;2277790;25;45372;-64
2024/04/08 04:26:59;;;;;;;;;5.00;5.00;;;;;17.96;100.00;100361.56;2277862;25;45656;-64
2024/04/08 04:28:02;;;;;;;;;6.00;6.00;;;;;17.94;100.00;100360.78;2277553;25;45027;-64
2024/04/08 04:29:02;;;;;;;;;6.25;6.25;;;;;17.91;100.00;100366.31;2278170;25;45104;-65
2024/04/08 04:30:03;;;;;;;;;7.00;6.67;;;;;17.92;100.00;100366.25;2289509;25;44890;-65
2024/04/08 04:31:03;;;;;;;;;5.00;5.00;;;;;17.88;100.00;100372.72;2281052;25;45292;-65
2024/04/08 04:32:04;;;;;;;;;7.00;7.00;;;;;17.88;100.00;100369.19;2277862;25;45075;-64
2024/04/08 04:33:04;;;;;;;;;4.67;4.33;;;;;17.86;100.00;100365.72;2277690;25;45529;-63
2024/04/08 04:34:05;;;;;;;;;7.67;7.67;;;;;17.87;100.00;100365.63;2277793;25;45180;-64
2024/04/08 04:35:05;;;;;;;;;7.00;7.00;;;;;17.96;100.00;100368.75;2278006;25;45084;-64
2024/04/08 04:36:05;;;;;;;;;6.00;6.00;;;;;17.99;100.00;100361.38;2286752;25;45175;-64
2024/04/08 04:37:06;;;;;;;;;6.00;6.00;;;;;18.02;100.00;100363.88;2280060;25;45610;-64
2024/04/08 04:38:06;;;;;;;;;8.00;8.00;;;;;18.03;100.00;100368.28;2290090;25;45479;-63